createdAt,value
2019-02-16T00:05:09.863Z,7.00
2019-02-16T00:09:18.119Z,7.00
2019-02-16T00:13:26.445Z,7.00
2019-02-16T00:17:34.649Z,7.00
2019-02-16T00:21:42.879Z,7.00
2019-02-16T00:25:51.138Z,6.90
2019-02-16T00:29:59.334Z,6.90
2019-02-16T00:34:07.582Z,6.90
2019-02-16T00:38:15.832Z,6.80
2019-02-16T00:42:24.056Z,6.80
2019-02-16T00:46:32.266Z,6.70
2019-02-16T00:50:40.518Z,6.70
2019-02-16T00:54:48.746Z,6.60
2019-02-16T00:58:57.042Z,6.60
2019-02-16T01:03:05.318Z,6.40
2019-02-16T01:07:13.555Z,6.30
2019-02-16T01:11:21.755Z,6.30
2019-02-16T01:15:29.992Z,6.40
2019-02-16T01:19:38.217Z,6.30
2019-02-16T01:23:46.442Z,6.30
2019-02-16T01:27:54.690Z,6.30
2019-02-16T01:32:02.933Z,6.20
2019-02-16T01:36:11.179Z,6.20
2019-02-16T01:40:19.436Z,6.20
2019-02-16T01:44:27.669Z,6.10
2019-02-16T01:48:35.959Z,6.10
2019-02-16T01:52:44.166Z,6.00
2019-02-16T01:56:52.421Z,6.00
2019-02-16T02:01:00.646Z,5.90
2019-02-16T02:05:08.934Z,5.80
2019-02-16T02:09:17.207Z,5.80
2019-02-16T02:13:25.474Z,5.80
2019-02-16T02:17:33.678Z,5.90
2019-02-16T02:21:41.914Z,5.90
2019-02-16T02:25:50.167Z,5.80
2019-02-16T02:29:58.426Z,5.70
2019-02-16T02:34:06.657Z,5.70
2019-02-16T02:38:14.907Z,5.70
2019-02-16T02:42:23.163Z,5.60
2019-02-16T02:46:31.409Z,5.60
2019-02-16T02:50:39.627Z,5.60
2019-02-16T02:54:48.063Z,5.60
2019-02-16T02:58:56.111Z,5.50
2019-02-16T03:03:04.361Z,5.50
2019-02-16T03:07:12.582Z,5.40
2019-02-16T03:15:28.762Z,5.40
2019-02-16T03:19:37.050Z,5.40
2019-02-16T03:23:45.321Z,5.40
2019-02-16T03:28:23.376Z,5.50
2019-02-16T03:34:41.721Z,5.50
2019-02-16T03:38:57.213Z,5.60
2019-02-16T03:43:05.478Z,5.60
2019-02-16T03:47:13.690Z,5.70
2019-02-16T03:51:21.903Z,5.60
2019-02-16T03:55:30.155Z,5.60
2019-02-16T03:59:38.403Z,5.60
2019-02-16T04:03:46.617Z,5.60
2019-02-16T04:07:54.834Z,5.50
2019-02-16T04:12:03.118Z,5.40
2019-02-16T04:16:11.369Z,5.40
2019-02-16T04:20:19.577Z,5.40
2019-02-16T04:24:27.825Z,5.30
2019-02-16T04:28:36.071Z,5.30
2019-02-16T04:32:44.271Z,5.40
2019-02-16T04:36:52.507Z,5.50
2019-02-16T04:41:00.758Z,5.40
2019-02-16T04:45:09.027Z,5.30
2019-02-16T04:49:17.250Z,5.20
2019-02-16T04:53:25.514Z,5.20
2019-02-16T04:57:33.790Z,5.20
2019-02-16T05:01:41.990Z,5.10
2019-02-16T05:05:50.221Z,5.00
2019-02-16T05:09:58.428Z,4.90
2019-02-16T05:14:06.659Z,4.90
2019-02-16T05:18:14.872Z,4.90
2019-02-16T05:22:23.135Z,4.80
2019-02-16T05:26:31.343Z,4.90
2019-02-16T05:30:39.577Z,4.80
2019-02-16T05:34:48.134Z,4.70
2019-02-16T05:38:56.127Z,4.70
2019-02-16T05:43:05.005Z,4.80
2019-02-16T05:47:13.270Z,4.80
2019-02-16T05:51:21.520Z,4.70
2019-02-16T05:55:29.770Z,4.60
2019-02-16T05:59:37.995Z,4.60
2019-02-16T06:03:46.214Z,4.60
2019-02-16T06:07:54.447Z,4.50
2019-02-16T06:12:02.638Z,4.50
2019-02-16T06:16:10.866Z,4.50
2019-02-16T06:20:19.103Z,4.40
2019-02-16T06:24:27.340Z,4.40
2019-02-16T06:28:35.728Z,4.50
2019-02-16T06:32:43.836Z,4.50
2019-02-16T06:36:52.052Z,4.60
2019-02-16T06:41:00.298Z,4.60
2019-02-16T06:45:08.551Z,4.50
2019-02-16T06:49:16.780Z,4.50
2019-02-16T06:57:33.040Z,4.50
2019-02-16T07:01:41.269Z,4.50
2019-02-16T07:05:49.467Z,4.50
2019-02-16T07:09:57.703Z,4.50
2019-02-16T07:14:05.974Z,4.50
2019-02-16T07:18:22.611Z,4.50
2019-02-16T07:26:38.810Z,4.70
2019-02-16T07:30:47.005Z,4.80
2019-02-16T07:34:55.260Z,4.80
2019-02-16T07:39:03.782Z,4.90
2019-02-16T07:43:16.350Z,4.90
2019-02-16T07:47:32.729Z,4.90
2019-02-16T07:51:45.201Z,4.90
2019-02-16T07:55:58.536Z,4.90
2019-02-16T08:00:13.579Z,4.90
2019-02-16T08:04:27.267Z,5.00
2019-02-16T08:08:39.756Z,5.10
2019-02-16T08:12:58.106Z,5.10
2019-02-16T08:17:13.950Z,5.30
2019-02-16T08:21:27.334Z,5.40
2019-02-16T08:25:43.772Z,5.50
2019-02-16T08:29:58.284Z,5.70
2019-02-16T08:34:13.519Z,5.80
2019-02-16T08:38:26.012Z,6.00
2019-02-16T08:42:42.303Z,6.10
2019-02-16T08:46:58.829Z,6.30
2019-02-16T08:51:45.377Z,6.50
2019-02-16T08:55:58.843Z,6.70
2019-02-16T09:00:11.386Z,6.90
2019-02-16T09:04:26.587Z,7.10
2019-02-16T09:10:44.383Z,7.30
2019-02-16T09:19:14.349Z,7.70
2019-02-16T09:23:28.042Z,7.80
2019-02-16T09:27:46.323Z,8.00
2019-02-16T09:32:01.861Z,8.10
2019-02-16T09:37:14.050Z,8.40
2019-02-16T09:41:27.772Z,8.50
2019-02-16T09:45:40.289Z,8.60
2019-02-16T09:50:08.950Z,8.70
2019-02-16T09:54:26.499Z,8.80
2019-02-16T09:59:44.672Z,8.80
2019-02-16T10:04:34.575Z,8.80
2019-02-16T10:08:47.046Z,8.90
2019-02-16T10:13:00.690Z,8.90
2019-02-16T10:17:13.027Z,9.00
2019-02-16T10:21:31.523Z,9.10
2019-02-16T10:25:49.026Z,9.20
2019-02-16T10:31:00.786Z,9.30
2019-02-16T10:35:14.692Z,9.40
2019-02-16T10:39:27.200Z,9.60
2019-02-16T10:44:39.616Z,9.70
2019-02-16T10:48:52.936Z,9.90
2019-02-16T10:53:09.319Z,10.20
2019-02-16T10:57:28.852Z,10.50
2019-02-16T11:01:42.199Z,10.80
2019-02-16T11:05:55.519Z,11.10
2019-02-16T11:10:08.202Z,11.20
2019-02-16T11:14:25.579Z,11.40
2019-02-16T11:18:39.301Z,11.60
2019-02-16T11:22:54.743Z,11.90
2019-02-16T11:27:08.614Z,12.10
2019-02-16T11:31:27.030Z,12.10
2019-02-16T11:35:46.522Z,12.20
2019-02-16T11:41:18.298Z,12.40
2019-02-16T11:45:37.450Z,12.50
2019-02-16T11:49:51.075Z,12.60
2019-02-16T11:54:04.351Z,12.70
2019-02-16T12:02:39.786Z,12.80
2019-02-16T12:06:48.449Z,12.90
2019-02-16T12:11:03.819Z,12.90
2019-02-16T12:15:22.257Z,13.00
2019-02-16T12:19:38.643Z,13.10
2019-02-16T12:24:23.287Z,13.10
2019-02-16T12:28:39.987Z,13.30
2019-02-16T12:33:10.632Z,13.40
2019-02-16T12:37:30.218Z,13.40
2019-02-16T12:41:43.863Z,13.40
2019-02-16T12:46:03.431Z,13.50
2019-02-16T12:50:33.763Z,13.60
2019-02-16T12:54:47.127Z,13.60
2019-02-16T12:59:00.778Z,13.60
2019-02-16T13:03:18.153Z,13.70
2019-02-16T13:09:34.202Z,13.70
2019-02-16T13:13:47.716Z,13.60
2019-02-16T13:18:00.212Z,13.70
2019-02-16T13:22:12.734Z,13.60
2019-02-16T13:26:31.123Z,13.60
2019-02-16T13:30:46.542Z,13.70
2019-02-16T13:34:59.112Z,13.80
2019-02-16T13:39:16.506Z,13.80
2019-02-16T13:43:29.070Z,13.70
2019-02-16T13:48:40.295Z,13.70
2019-02-16T13:52:54.783Z,13.60
2019-02-16T13:57:07.242Z,13.60
2019-02-16T14:01:20.512Z,13.60
2019-02-16T14:05:38.902Z,13.70
2019-02-16T14:09:56.461Z,13.80
2019-02-16T14:14:14.952Z,13.90
2019-02-16T14:18:23.194Z,13.90
2019-02-16T14:22:31.419Z,14.00
2019-02-16T14:26:39.686Z,13.90
2019-02-16T14:30:47.938Z,14.00
2019-02-16T14:34:56.205Z,14.00
2019-02-16T14:39:12.789Z,13.90
2019-02-16T14:43:21.063Z,14.00
2019-02-16T14:47:29.339Z,14.00
2019-02-16T14:51:37.701Z,13.90
2019-02-16T14:55:52.390Z,13.90
2019-02-16T14:59:54.154Z,13.80
2019-02-16T15:04:02.370Z,13.80
2019-02-16T15:08:10.583Z,13.80
2019-02-16T15:12:18.894Z,13.60
2019-02-16T15:16:27.166Z,13.50
2019-02-16T15:20:35.382Z,13.40
2019-02-16T15:24:43.646Z,13.40
2019-02-16T15:28:51.902Z,13.30
2019-02-16T15:33:00.158Z,13.30
2019-02-16T15:37:08.597Z,13.20
2019-02-16T15:41:16.906Z,13.20
2019-02-16T15:45:25.153Z,13.10
2019-02-16T15:49:33.412Z,13.10
2019-02-16T15:53:41.735Z,13.10
2019-02-16T15:57:49.954Z,13.10
2019-02-16T16:01:58.157Z,13.00
2019-02-16T16:06:06.418Z,13.00
2019-02-16T16:10:17.822Z,13.30
2019-02-16T16:14:30.282Z,13.10
2019-02-16T16:18:42.731Z,12.90
2019-02-16T16:23:00.114Z,12.70
2019-02-16T16:27:17.659Z,12.50
2019-02-16T16:31:36.185Z,12.40
2019-02-16T16:36:03.615Z,12.30
2019-02-16T16:40:17.243Z,12.10
2019-02-16T16:44:34.006Z,12.00
2019-02-16T16:48:46.474Z,11.90
2019-02-16T16:53:12.114Z,11.70
2019-02-16T16:57:24.584Z,11.60
2019-02-16T17:01:41.155Z,11.40
2019-02-16T17:05:54.563Z,11.30
2019-02-16T17:12:16.462Z,11.20
2019-02-16T17:16:31.750Z,11.00
2019-02-16T17:20:46.256Z,10.70
2019-02-16T17:25:01.581Z,10.70
2019-02-16T17:29:14.078Z,10.60
2019-02-16T17:33:29.510Z,10.50
2019-02-16T17:37:42.994Z,10.40
2019-02-16T17:41:56.496Z,10.40
2019-02-16T17:46:10.171Z,10.30
2019-02-16T17:50:23.954Z,10.10
2019-02-16T17:54:41.193Z,10.00
2019-02-16T17:58:56.470Z,9.80
2019-02-16T18:03:40.194Z,9.80
2019-02-16T18:07:54.699Z,9.70
2019-02-16T18:12:08.262Z,9.60
2019-02-16T18:16:21.607Z,9.50
2019-02-16T18:20:34.080Z,9.40
2019-02-16T18:24:50.565Z,9.30
2019-02-16T18:29:05.923Z,9.20
2019-02-16T18:33:26.510Z,9.10
2019-02-16T18:37:40.257Z,9.00
2019-02-16T18:42:00.581Z,8.90
2019-02-16T18:46:19.113Z,8.90
2019-02-16T18:50:37.650Z,8.80
2019-02-16T18:55:53.646Z,8.80
2019-02-16T19:00:08.139Z,8.70
2019-02-16T19:04:22.601Z,8.60
2019-02-16T19:08:36.384Z,8.50
2019-02-16T19:14:53.096Z,8.50
2019-02-16T19:19:09.519Z,8.40
2019-02-16T19:23:22.902Z,8.30
2019-02-16T19:29:43.657Z,8.20
2019-02-16T19:33:57.097Z,8.10
2019-02-16T19:38:11.490Z,8.00
2019-02-16T19:42:27.868Z,7.90
2019-02-16T19:50:57.926Z,7.80
2019-02-16T19:55:17.316Z,7.80
2019-02-16T19:59:29.792Z,7.70
2019-02-16T20:03:44.300Z,7.60
2019-02-16T20:08:01.707Z,7.60
2019-02-16T20:12:15.129Z,7.50
2019-02-16T20:16:29.542Z,7.40
2019-02-16T20:21:00.233Z,7.40
2019-02-16T20:25:15.633Z,7.40
2019-02-16T20:29:32.149Z,7.30
2019-02-16T20:33:47.744Z,7.20
2019-02-16T20:38:20.369Z,7.10
2019-02-16T20:42:41.813Z,7.10
2019-02-16T20:46:55.305Z,7.00
2019-02-16T20:51:15.801Z,6.80
2019-02-16T20:55:30.301Z,6.70
2019-02-16T20:59:43.766Z,6.70
2019-02-16T21:04:08.447Z,6.70
2019-02-16T21:08:40.024Z,6.80
2019-02-16T21:12:54.490Z,6.70
2019-02-16T21:17:08.291Z,6.70
2019-02-16T21:21:20.779Z,6.60
2019-02-16T21:25:35.275Z,6.60
2019-02-16T21:29:47.951Z,6.40
2019-02-16T21:34:07.124Z,6.30
2019-02-16T21:38:22.490Z,6.30
2019-02-16T21:42:35.852Z,6.30
2019-02-16T21:48:51.729Z,6.30
2019-02-16T21:53:07.174Z,6.20
2019-02-16T21:57:25.651Z,6.20
2019-02-16T22:01:41.125Z,6.10
2019-02-16T22:05:55.633Z,6.10
2019-02-16T22:10:10.993Z,6.00
2019-02-16T22:14:19.237Z,6.00
2019-02-16T22:18:27.474Z,6.00
2019-02-16T22:22:35.690Z,5.90
2019-02-16T22:26:43.954Z,5.80
2019-02-16T22:30:52.190Z,5.80
2019-02-16T22:35:00.430Z,5.80
2019-02-16T22:39:08.610Z,5.70
2019-02-16T22:43:16.872Z,5.80
2019-02-16T22:47:25.094Z,5.70
2019-02-16T22:51:33.393Z,5.70
2019-02-16T22:55:41.635Z,5.60
2019-02-16T22:59:49.873Z,5.60
2019-02-16T23:03:58.122Z,5.60
2019-02-16T23:08:06.409Z,5.60
2019-02-16T23:12:14.662Z,5.50
2019-02-16T23:16:22.893Z,5.50
2019-02-16T23:20:31.119Z,5.50
2019-02-16T23:24:39.352Z,5.40
2019-02-16T23:28:47.606Z,5.30
2019-02-16T23:32:57.069Z,5.30
2019-02-16T23:37:04.138Z,5.20
2019-02-16T23:41:12.407Z,5.20
2019-02-16T23:45:20.607Z,5.10
2019-02-16T23:49:28.846Z,5.20
2019-02-16T23:53:37.070Z,5.20
2019-02-16T23:57:45.354Z,5.20
